Etusivu
METAR-TAF:

METAR-TAF

Lentoasemat :

Ogoki Post, Ontario, Kanada

Leveyspiiri: 51-39-31N, Pituuspiiri: 85-54-04W, korkeus merenpinnasta: 181 m

Tämänhetkinen sää

Tämä raportti tehtiin 12 minuuttia sitten, kello 09.00 UTC
Tuuli 5 kn pohjoisen/luoteesta
Lämpötila -12°C
Kosteus 92%
Ilmanpaine 1024 hPa
Näkyvyys: 14.5 km
Muutamia pilviä 1200 ft:n korkeudessa
Pilvistä 4200 ft:n korkeudessa
heikkoa lumisadetta

METAR: CYKP 250900Z AUTO 33005KT 9SM -SN FEW012 OVC042 M12/M13 A3023 RMK SLP256

Aika: 04:12 (09:12 UTC)


TAF: puuttuu

Säähavainnot ja -ennusteet yli 4000 lentoasemalta (METAR- ja TAF-raportit).

Käytössä olevat sääasemat on merkitty karttaan keltaisilla ja punaisilla pisteillä.

Aseta hiiri pisteen päälle nähdäksesi sääaseman nimen.

Klikkaa sitten nähdäksesi säähavainnot ja -ennusteet.

Kartan vaihtaminen: klikkaa mustalla rastilla varustettuja vihreitä pisteitä, niin voit zoomata sisään; viivalla varustettua vihreää pistettä, niin voit zoomata ulos tai vihreitä nuolia, niin pääset viereisille kartoille.


METAR-TAF: